Aérodrome :
LOGIN :

S'inscrire | Disclaimer

   EN    FR    IT 

 










Légende :    VFR   VFR Marginal   IFR   IFR Intensif   IFR Très Intensif
Visi : 
Plafond : 
>= 8 km
>= 3000ft
5 à 8 km
1000 à 3000 ft
1500m à 5 km
500 à 1000 ft
800 à 1500m
200 à 500 ft
< 800m
< 200 ft
Symboles :   Orages  Brouillard  Fortes neiges  Fortes précipitations  Vent > 20 kt
SIGMETs :   Divers  Orages  Givrage  Turbulence  Onde Orograph.  Cendres Volcan.






- Altitude de l'aérodrome : 622 ft
- Code IATA : BRS


EGGD - Bristol Int.

DERNIER METAR :
  • 282120Z AUTO 23011KT 7000 -RA OVC002 10/10 Q1010

METARs EXPIRÉS :
  • 282050Z AUTO 23008KT 9999 OVC002 11/10 Q1011
  • 282020Z AUTO 22008KT 9999 BKN003 OVC009 11/10 Q1011
  • 281950Z AUTO 21007KT 9999 OVC003 11/10 Q1011
  • 281920Z AUTO 22008KT 9999 OVC004 11/10 Q1011
  • 281850Z AUTO 22008KT 9999 OVC003 11/10 Q1012
  • 281820Z AUTO 21007KT 9999 BKN002 OVC007 11/10 Q1012
  • 281750Z AUTO 21006KT 9999 -RA OVC002 11/10 Q1012
  • 281720Z 21008KT 9999 FEW002 BKN003 11/10 Q1013
  • 281650Z 21009KT 9999 FEW003 BKN004 11/10 Q1013

TAF TAF EGGD
Valide du 28 à 18h jusqu'au 29 à 18h UTC


281659Z 2818/2918 21010KT 9999 BKN006
TEMPO 2818/2823 4000 DZ BKN003
PROB30
TEMPO 2818/2821 1200 BR BKN001
PROB30
TEMPO 2821/2901 SCT008
PROB40
TEMPO 2822/2903 20016G26KT
TEMPO 2901/2912 6000 RA
PROB30
TEMPO 2901/2907 BKN004
BECMG 2902/2904 27010KT SCT010
PROB30
TEMPO 2903/2906 3000 +RA RADZ
TEMPO 2904/2912 BKN008
PROB40
TEMPO 2912/2918 7000 SHRA BKN010
ATIS : +44 1275 473 666



MET'MAP, la Météo Aéronautique d'un coup d'oeil ! - Copyright ORBIFLY Décembre 2007 - Disclaimer

ORBIFLY MET'MAP TEAM :

Programmation & Développement : Alexandra Zaïnal
Sur une idée originale de : Baudouin d'Aumeries
Soutien technique & logistique : Manuel Goepfert
Assistance : Marc-Olivier Méhu




SOURCES & CREDITS :

   NOAA